sensor_id;sensor_type;location;lat;lon;timestamp;P1;durP1;ratioP1;P2;durP2;ratioP2
18188;SDS011;9219;50.396;8.546;2023-03-22T00:01:45;7.67;;;4.33;;
18188;SDS011;9219;50.396;8.546;2023-03-22T00:04:15;16.30;;;5.60;;
18188;SDS011;9219;50.396;8.546;2023-03-22T00:06:58;10.90;;;4.80;;
18188;SDS011;9219;50.396;8.546;2023-03-22T00:09:26;10.17;;;5.10;;
18188;SDS011;9219;50.396;8.546;2023-03-22T00:11:58;7.17;;;4.43;;
18188;SDS011;9219;50.396;8.546;2023-03-22T00:19:19;7.90;;;4.53;;
18188;SDS011;9219;50.396;8.546;2023-03-22T00:21:53;8.70;;;4.53;;
18188;SDS011;9219;50.396;8.546;2023-03-22T00:24:20;8.83;;;5.00;;
18188;SDS011;9219;50.396;8.546;2023-03-22T00:26:52;12.10;;;5.30;;
18188;SDS011;9219;50.396;8.546;2023-03-22T00:29:20;9.47;;;5.07;;
18188;SDS011;9219;50.396;8.546;2023-03-22T00:31:59;6.30;;;4.90;;
18188;SDS011;9219;50.396;8.546;2023-03-22T00:34:30;11.73;;;5.80;;
18188;SDS011;9219;50.396;8.546;2023-03-22T00:42:03;9.57;;;5.60;;
18188;SDS011;9219;50.396;8.546;2023-03-22T00:44:31;9.37;;;5.70;;
18188;SDS011;9219;50.396;8.546;2023-03-22T00:46:59;10.10;;;5.53;;
18188;SDS011;9219;50.396;8.546;2023-03-22T00:49:27;11.17;;;6.70;;
18188;SDS011;9219;50.396;8.546;2023-03-22T00:51:56;9.87;;;6.47;;
18188;SDS011;9219;50.396;8.546;2023-03-22T00:54:24;13.17;;;5.70;;
18188;SDS011;9219;50.396;8.546;2023-03-22T00:56:52;9.10;;;6.10;;
18188;SDS011;9219;50.396;8.546;2023-03-22T00:59:23;9.87;;;6.57;;
18188;SDS011;9219;50.396;8.546;2023-03-22T01:02:24;11.43;;;6.30;;
18188;SDS011;9219;50.396;8.546;2023-03-22T01:05:09;12.90;;;7.03;;
18188;SDS011;9219;50.396;8.546;2023-03-22T01:07:42;12.43;;;6.10;;
18188;SDS011;9219;50.396;8.546;2023-03-22T01:10:11;8.50;;;5.60;;
18188;SDS011;9219;50.396;8.546;2023-03-22T01:12:44;10.40;;;6.37;;
18188;SDS011;9219;50.396;8.546;2023-03-22T01:15:12;8.97;;;5.77;;
18188;SDS011;9219;50.396;8.546;2023-03-22T01:20:23;8.63;;;5.47;;
18188;SDS011;9219;50.396;8.546;2023-03-22T01:25:50;11.83;;;7.13;;
18188;SDS011;9219;50.396;8.546;2023-03-22T01:28:18;8.97;;;5.70;;
18188;SDS011;9219;50.396;8.546;2023-03-22T01:35:47;9.73;;;6.17;;
18188;SDS011;9219;50.396;8.546;2023-03-22T01:38:14;11.27;;;6.27;;
18188;SDS011;9219;50.396;8.546;2023-03-22T01:40:42;12.57;;;7.23;;
18188;SDS011;9219;50.396;8.546;2023-03-22T01:43:11;10.27;;;6.50;;
18188;SDS011;9219;50.396;8.546;2023-03-22T01:45:41;8.50;;;5.50;;
18188;SDS011;9219;50.396;8.546;2023-03-22T01:48:15;8.70;;;5.70;;
18188;SDS011;9219;50.396;8.546;2023-03-22T01:50:48;7.57;;;4.97;;
18188;SDS011;9219;50.396;8.546;2023-03-22T02:00:50;11.60;;;5.87;;
18188;SDS011;9219;50.396;8.546;2023-03-22T02:03:20;10.67;;;5.40;;
18188;SDS011;9219;50.396;8.546;2023-03-22T02:05:53;10.43;;;5.50;;
18188;SDS011;9219;50.396;8.546;2023-03-22T02:08:21;8.53;;;5.30;;
18188;SDS011;9219;50.396;8.546;2023-03-22T02:10:48;7.53;;;5.33;;
18188;SDS011;9219;50.396;8.546;2023-03-22T02:13:29;9.07;;;5.67;;
18188;SDS011;9219;50.396;8.546;2023-03-22T02:16:11;13.63;;;6.50;;
18188;SDS011;9219;50.396;8.546;2023-03-22T02:26:59;17.37;;;7.37;;
18188;SDS011;9219;50.396;8.546;2023-03-22T02:29:46;13.03;;;6.50;;
18188;SDS011;9219;50.396;8.546;2023-03-22T02:32:41;15.23;;;6.90;;
18188;SDS011;9219;50.396;8.546;2023-03-22T02:35:38;13.40;;;6.60;;
18188;SDS011;9219;50.396;8.546;2023-03-22T02:46:45;12.40;;;6.60;;
18188;SDS011;9219;50.396;8.546;2023-03-22T02:49:27;10.03;;;6.40;;
18188;SDS011;9219;50.396;8.546;2023-03-22T02:52:09;13.30;;;7.87;;
18188;SDS011;9219;50.396;8.546;2023-03-22T02:54:43;12.57;;;6.13;;
18188;SDS011;9219;50.396;8.546;2023-03-22T02:57:21;8.83;;;5.43;;
18188;SDS011;9219;50.396;8.546;2023-03-22T02:59:54;10.23;;;6.70;;
18188;SDS011;9219;50.396;8.546;2023-03-22T03:02:24;10.60;;;6.07;;
18188;SDS011;9219;50.396;8.546;2023-03-22T03:05:02;9.37;;;5.73;;
18188;SDS011;9219;50.396;8.546;2023-03-22T03:12:13;10.30;;;5.57;;
18188;SDS011;9219;50.396;8.546;2023-03-22T03:14:43;11.53;;;5.37;;
18188;SDS011;9219;50.396;8.546;2023-03-22T03:17:12;9.93;;;5.27;;
18188;SDS011;9219;50.396;8.546;2023-03-22T03:20:01;6.50;;;4.10;;
18188;SDS011;9219;50.396;8.546;2023-03-22T03:22:42;12.00;;;5.60;;
18188;SDS011;9219;50.396;8.546;2023-03-22T03:25:17;7.40;;;4.30;;
18188;SDS011;9219;50.396;8.546;2023-03-22T03:28:02;10.93;;;5.33;;
18188;SDS011;9219;50.396;8.546;2023-03-22T03:30:37;9.40;;;4.33;;
18188;SDS011;9219;50.396;8.546;2023-03-22T03:36:09;7.10;;;3.93;;
18188;SDS011;9219;50.396;8.546;2023-03-22T03:38:49;5.57;;;4.00;;
18188;SDS011;9219;50.396;8.546;2023-03-22T03:44:04;5.70;;;3.63;;
18188;SDS011;9219;50.396;8.546;2023-03-22T03:46:33;8.27;;;4.10;;
18188;SDS011;9219;50.396;8.546;2023-03-22T03:49:00;7.23;;;4.50;;
18188;SDS011;9219;50.396;8.546;2023-03-22T03:51:33;7.50;;;4.20;;
18188;SDS011;9219;50.396;8.546;2023-03-22T03:54:15;8.20;;;4.50;;
18188;SDS011;9219;50.396;8.546;2023-03-22T04:04:45;12.57;;;5.10;;
18188;SDS011;9219;50.396;8.546;2023-03-22T04:07:12;10.37;;;4.87;;
18188;SDS011;9219;50.396;8.546;2023-03-22T04:09:43;12.10;;;5.97;;
18188;SDS011;9219;50.396;8.546;2023-03-22T04:12:12;11.70;;;5.00;;
18188;SDS011;9219;50.396;8.546;2023-03-22T04:14:51;9.77;;;4.17;;
18188;SDS011;9219;50.396;8.546;2023-03-22T04:17:22;6.70;;;4.83;;
18188;SDS011;9219;50.396;8.546;2023-03-22T04:19:53;9.13;;;5.33;;
18188;SDS011;9219;50.396;8.546;2023-03-22T04:27:21;13.63;;;5.97;;
18188;SDS011;9219;50.396;8.546;2023-03-22T04:29:52;7.27;;;4.67;;
18188;SDS011;9219;50.396;8.546;2023-03-22T04:32:22;11.63;;;5.17;;
18188;SDS011;9219;50.396;8.546;2023-03-22T04:35:05;10.67;;;5.17;;
18188;SDS011;9219;50.396;8.546;2023-03-22T04:37:33;10.67;;;5.07;;
18188;SDS011;9219;50.396;8.546;2023-03-22T04:40:01;12.53;;;4.43;;
18188;SDS011;9219;50.396;8.546;2023-03-22T04:42:48;7.00;;;4.47;;
18188;SDS011;9219;50.396;8.546;2023-03-22T04:45:16;6.57;;;4.57;;
18188;SDS011;9219;50.396;8.546;2023-03-22T04:52:50;10.90;;;5.80;;
18188;SDS011;9219;50.396;8.546;2023-03-22T04:55:18;10.47;;;5.53;;
18188;SDS011;9219;50.396;8.546;2023-03-22T04:57:45;11.47;;;5.40;;
18188;SDS011;9219;50.396;8.546;2023-03-22T05:00:19;14.03;;;6.13;;
18188;SDS011;9219;50.396;8.546;2023-03-22T05:02:47;8.23;;;5.00;;
18188;SDS011;9219;50.396;8.546;2023-03-22T05:05:17;12.33;;;5.70;;
18188;SDS011;9219;50.396;8.546;2023-03-22T05:07:45;9.80;;;5.60;;
18188;SDS011;9219;50.396;8.546;2023-03-22T05:13:16;11.53;;;6.47;;
18188;SDS011;9219;50.396;8.546;2023-03-22T05:15:43;9.90;;;5.87;;
18188;SDS011;9219;50.396;8.546;2023-03-22T05:18:12;9.33;;;6.37;;
18188;SDS011;9219;50.396;8.546;2023-03-22T05:20:43;9.83;;;5.70;;
18188;SDS011;9219;50.396;8.546;2023-03-22T05:23:10;10.13;;;6.50;;
18188;SDS011;9219;50.396;8.546;2023-03-22T05:25:41;11.97;;;6.20;;
18188;SDS011;9219;50.396;8.546;2023-03-22T05:28:20;11.33;;;6.30;;
18188;SDS011;9219;50.396;8.546;2023-03-22T05:30:54;11.93;;;5.97;;
18188;SDS011;9219;50.396;8.546;2023-03-22T05:38:06;10.87;;;5.50;;
18188;SDS011;9219;50.396;8.546;2023-03-22T05:40:35;13.10;;;6.33;;
18188;SDS011;9219;50.396;8.546;2023-03-22T05:43:03;11.93;;;5.77;;
18188;SDS011;9219;50.396;8.546;2023-03-22T05:45:31;9.40;;;5.80;;
18188;SDS011;9219;50.396;8.546;2023-03-22T05:48:01;10.33;;;5.80;;
18188;SDS011;9219;50.396;8.546;2023-03-22T05:50:29;10.30;;;5.73;;
18188;SDS011;9219;50.396;8.546;2023-03-22T05:52:57;12.87;;;5.63;;
18188;SDS011;9219;50.396;8.546;2023-03-22T06:01:18;10.00;;;6.57;;
18188;SDS011;9219;50.396;8.546;2023-03-22T06:04:04;9.47;;;5.60;;
18188;SDS011;9219;50.396;8.546;2023-03-22T06:06:33;12.43;;;6.37;;
18188;SDS011;9219;50.396;8.546;2023-03-22T06:09:01;12.10;;;6.13;;
18188;SDS011;9219;50.396;8.546;2023-03-22T06:11:42;12.30;;;6.33;;
18188;SDS011;9219;50.396;8.546;2023-03-22T06:14:10;9.33;;;6.00;;
18188;SDS011;9219;50.396;8.546;2023-03-22T06:16:41;9.03;;;6.13;;
18188;SDS011;9219;50.396;8.546;2023-03-22T06:21:54;11.53;;;7.57;;
18188;SDS011;9219;50.396;8.546;2023-03-22T06:24:36;13.53;;;7.83;;
18188;SDS011;9219;50.396;8.546;2023-03-22T06:27:05;12.93;;;6.43;;
18188;SDS011;9219;50.396;8.546;2023-03-22T06:29:36;12.70;;;7.40;;
18188;SDS011;9219;50.396;8.546;2023-03-22T06:32:06;19.00;;;8.03;;
18188;SDS011;9219;50.396;8.546;2023-03-22T06:34:42;13.23;;;8.17;;
18188;SDS011;9219;50.396;8.546;2023-03-22T06:37:14;11.87;;;8.60;;
18188;SDS011;9219;50.396;8.546;2023-03-22T06:42:39;13.90;;;8.73;;
18188;SDS011;9219;50.396;8.546;2023-03-22T06:45:06;15.63;;;8.47;;
18188;SDS011;9219;50.396;8.546;2023-03-22T06:47:34;13.20;;;8.30;;
18188;SDS011;9219;50.396;8.546;2023-03-22T06:50:05;12.33;;;8.17;;
18188;SDS011;9219;50.396;8.546;2023-03-22T06:52:35;16.73;;;9.70;;
18188;SDS011;9219;50.396;8.546;2023-03-22T06:55:08;12.87;;;8.00;;
18188;SDS011;9219;50.396;8.546;2023-03-22T06:57:42;13.87;;;7.47;;
18188;SDS011;9219;50.396;8.546;2023-03-22T07:00:33;12.37;;;8.20;;
18188;SDS011;9219;50.396;8.546;2023-03-22T07:08:06;11.23;;;6.57;;
18188;SDS011;9219;50.396;8.546;2023-03-22T07:10:48;14.40;;;7.73;;
18188;SDS011;9219;50.396;8.546;2023-03-22T07:13:21;9.40;;;5.90;;
18188;SDS011;9219;50.396;8.546;2023-03-22T07:16:03;9.67;;;6.03;;
18188;SDS011;9219;50.396;8.546;2023-03-22T07:18:31;9.90;;;6.00;;
18188;SDS011;9219;50.396;8.546;2023-03-22T07:20:59;12.00;;;6.53;;
18188;SDS011;9219;50.396;8.546;2023-03-22T07:23:42;14.27;;;6.20;;
18188;SDS011;9219;50.396;8.546;2023-03-22T07:31:26;15.03;;;5.67;;
18188;SDS011;9219;50.396;8.546;2023-03-22T07:33:54;9.27;;;5.57;;
18188;SDS011;9219;50.396;8.546;2023-03-22T07:36:21;13.10;;;5.57;;
18188;SDS011;9219;50.396;8.546;2023-03-22T07:38:50;11.37;;;4.93;;
18188;SDS011;9219;50.396;8.546;2023-03-22T07:41:18;11.53;;;5.33;;
18188;SDS011;9219;50.396;8.546;2023-03-22T07:43:49;9.13;;;5.10;;
18188;SDS011;9219;50.396;8.546;2023-03-22T07:46:33;10.93;;;5.10;;
18188;SDS011;9219;50.396;8.546;2023-03-22T07:54:11;7.87;;;4.90;;
18188;SDS011;9219;50.396;8.546;2023-03-22T07:56:58;14.43;;;5.70;;
18188;SDS011;9219;50.396;8.546;2023-03-22T07:59:26;6.80;;;4.33;;
18188;SDS011;9219;50.396;8.546;2023-03-22T08:01:54;7.03;;;4.13;;
18188;SDS011;9219;50.396;8.546;2023-03-22T08:04:21;6.60;;;4.30;;
18188;SDS011;9219;50.396;8.546;2023-03-22T08:06:56;6.33;;;3.77;;
18188;SDS011;9219;50.396;8.546;2023-03-22T08:09:26;7.37;;;3.77;;
18188;SDS011;9219;50.396;8.546;2023-03-22T08:11:54;8.50;;;4.17;;
18188;SDS011;9219;50.396;8.546;2023-03-22T08:22:38;7.57;;;3.93;;
18188;SDS011;9219;50.396;8.546;2023-03-22T08:25:08;5.30;;;3.10;;
18188;SDS011;9219;50.396;8.546;2023-03-22T08:27:41;9.10;;;3.33;;
18188;SDS011;9219;50.396;8.546;2023-03-22T08:30:15;4.47;;;3.60;;
18188;SDS011;9219;50.396;8.546;2023-03-22T08:32:43;6.67;;;3.30;;
18188;SDS011;9219;50.396;8.546;2023-03-22T08:35:21;8.13;;;3.90;;
18188;SDS011;9219;50.396;8.546;2023-03-22T08:43:00;6.03;;;3.63;;
18188;SDS011;9219;50.396;8.546;2023-03-22T08:45:31;8.77;;;3.60;;
18188;SDS011;9219;50.396;8.546;2023-03-22T08:47:58;5.97;;;3.83;;
18188;SDS011;9219;50.396;8.546;2023-03-22T08:50:35;6.87;;;3.10;;
18188;SDS011;9219;50.396;8.546;2023-03-22T08:53:05;5.57;;;3.70;;
18188;SDS011;9219;50.396;8.546;2023-03-22T08:55:33;10.43;;;3.90;;
18188;SDS011;9219;50.396;8.546;2023-03-22T08:58:28;5.77;;;3.67;;
18188;SDS011;9219;50.396;8.546;2023-03-22T09:00:56;5.27;;;3.63;;
18188;SDS011;9219;50.396;8.546;2023-03-22T09:03:42;7.73;;;3.87;;
18188;SDS011;9219;50.396;8.546;2023-03-22T09:06:13;9.83;;;3.77;;
18188;SDS011;9219;50.396;8.546;2023-03-22T09:08:41;5.13;;;4.10;;
18188;SDS011;9219;50.396;8.546;2023-03-22T09:11:11;5.67;;;3.17;;
18188;SDS011;9219;50.396;8.546;2023-03-22T09:13:40;4.83;;;3.33;;
18188;SDS011;9219;50.396;8.546;2023-03-22T09:16:07;4.97;;;3.43;;
18188;SDS011;9219;50.396;8.546;2023-03-22T09:18:36;5.27;;;3.50;;
18188;SDS011;9219;50.396;8.546;2023-03-22T09:23:47;9.90;;;3.07;;
18188;SDS011;9219;50.396;8.546;2023-03-22T09:26:15;5.27;;;3.13;;
18188;SDS011;9219;50.396;8.546;2023-03-22T09:28:47;5.47;;;2.93;;
18188;SDS011;9219;50.396;8.546;2023-03-22T09:31:20;4.50;;;3.40;;
18188;SDS011;9219;50.396;8.546;2023-03-22T09:33:47;4.07;;;2.73;;
18188;SDS011;9219;50.396;8.546;2023-03-22T09:36:15;4.53;;;2.50;;
18188;SDS011;9219;50.396;8.546;2023-03-22T09:38:55;6.20;;;2.60;;
18188;SDS011;9219;50.396;8.546;2023-03-22T09:46:34;7.93;;;3.10;;
18188;SDS011;9219;50.396;8.546;2023-03-22T09:49:09;5.53;;;2.90;;
18188;SDS011;9219;50.396;8.546;2023-03-22T09:51:43;3.97;;;3.00;;
18188;SDS011;9219;50.396;8.546;2023-03-22T09:54:13;5.37;;;2.43;;
18188;SDS011;9219;50.396;8.546;2023-03-22T09:56:44;6.00;;;3.07;;
18188;SDS011;9219;50.396;8.546;2023-03-22T09:59:17;5.50;;;3.07;;
18188;SDS011;9219;50.396;8.546;2023-03-22T10:01:52;4.43;;;2.50;;
18188;SDS011;9219;50.396;8.546;2023-03-22T10:12:28;6.37;;;2.60;;
18188;SDS011;9219;50.396;8.546;2023-03-22T10:15:03;4.27;;;2.27;;
18188;SDS011;9219;50.396;8.546;2023-03-22T10:17:32;4.67;;;2.63;;
18188;SDS011;9219;50.396;8.546;2023-03-22T10:20:04;6.77;;;3.00;;
18188;SDS011;9219;50.396;8.546;2023-03-22T10:22:40;3.73;;;2.70;;
18188;SDS011;9219;50.396;8.546;2023-03-22T10:25:20;7.60;;;2.40;;
18188;SDS011;9219;50.396;8.546;2023-03-22T10:30:49;4.73;;;2.90;;
18188;SDS011;9219;50.396;8.546;2023-03-22T10:33:24;6.00;;;2.43;;
18188;SDS011;9219;50.396;8.546;2023-03-22T10:36:03;3.97;;;2.73;;
18188;SDS011;9219;50.396;8.546;2023-03-22T10:38:36;6.53;;;2.80;;
18188;SDS011;9219;50.396;8.546;2023-03-22T10:41:13;7.50;;;2.77;;
18188;SDS011;9219;50.396;8.546;2023-03-22T10:43:44;3.60;;;2.57;;
18188;SDS011;9219;50.396;8.546;2023-03-22T10:46:17;4.87;;;2.20;;
18188;SDS011;9219;50.396;8.546;2023-03-22T10:53:48;4.17;;;2.30;;
18188;SDS011;9219;50.396;8.546;2023-03-22T10:56:18;3.23;;;2.23;;
18188;SDS011;9219;50.396;8.546;2023-03-22T10:58:49;5.20;;;1.87;;
18188;SDS011;9219;50.396;8.546;2023-03-22T11:01:23;3.57;;;2.43;;
18188;SDS011;9219;50.396;8.546;2023-03-22T11:03:54;3.40;;;2.30;;
18188;SDS011;9219;50.396;8.546;2023-03-22T11:06:27;3.20;;;2.57;;
18188;SDS011;9219;50.396;8.546;2023-03-22T11:09:09;4.07;;;1.97;;
18188;SDS011;9219;50.396;8.546;2023-03-22T11:14:44;2.33;;;1.70;;
18188;SDS011;9219;50.396;8.546;2023-03-22T11:17:12;5.37;;;1.70;;
18188;SDS011;9219;50.396;8.546;2023-03-22T11:19:52;2.30;;;1.67;;
18188;SDS011;9219;50.396;8.546;2023-03-22T11:22:34;2.30;;;1.63;;
18188;SDS011;9219;50.396;8.546;2023-03-22T11:25:05;2.60;;;1.53;;
18188;SDS011;9219;50.396;8.546;2023-03-22T11:27:49;2.40;;;1.43;;
18188;SDS011;9219;50.396;8.546;2023-03-22T11:37:37;2.37;;;1.57;;
18188;SDS011;9219;50.396;8.546;2023-03-22T11:40:09;2.60;;;1.53;;
18188;SDS011;9219;50.396;8.546;2023-03-22T11:42:41;3.00;;;1.50;;
18188;SDS011;9219;50.396;8.546;2023-03-22T11:45:12;4.77;;;1.90;;
18188;SDS011;9219;50.396;8.546;2023-03-22T11:47:42;3.10;;;1.37;;
18188;SDS011;9219;50.396;8.546;2023-03-22T11:50:23;2.63;;;1.20;;
18188;SDS011;9219;50.396;8.546;2023-03-22T11:57:59;2.97;;;1.77;;
18188;SDS011;9219;50.396;8.546;2023-03-22T12:00:29;4.10;;;1.13;;
18188;SDS011;9219;50.396;8.546;2023-03-22T12:03:04;2.27;;;1.40;;
18188;SDS011;9219;50.396;8.546;2023-03-22T12:05:36;3.03;;;1.40;;
18188;SDS011;9219;50.396;8.546;2023-03-22T12:08:08;2.03;;;1.37;;
18188;SDS011;9219;50.396;8.546;2023-03-22T12:10:43;2.90;;;1.93;;
18188;SDS011;9219;50.396;8.546;2023-03-22T12:13:30;3.87;;;1.40;;
18188;SDS011;9219;50.396;8.546;2023-03-22T12:19:16;4.97;;;1.30;;
18188;SDS011;9219;50.396;8.546;2023-03-22T12:21:52;1.57;;;1.13;;
18188;SDS011;9219;50.396;8.546;2023-03-22T12:24:23;1.30;;;1.20;;
18188;SDS011;9219;50.396;8.546;2023-03-22T12:26:53;1.60;;;1.20;;
18188;SDS011;9219;50.396;8.546;2023-03-22T12:29:27;2.30;;;1.53;;
18188;SDS011;9219;50.396;8.546;2023-03-22T12:32:02;2.53;;;1.20;;
18188;SDS011;9219;50.396;8.546;2023-03-22T12:34:41;1.77;;;1.50;;
18188;SDS011;9219;50.396;8.546;2023-03-22T12:40:13;1.40;;;1.20;;
18188;SDS011;9219;50.396;8.546;2023-03-22T12:42:48;3.37;;;1.47;;
18188;SDS011;9219;50.396;8.546;2023-03-22T12:45:27;1.87;;;1.20;;
18188;SDS011;9219;50.396;8.546;2023-03-22T12:47:57;3.43;;;1.50;;
18188;SDS011;9219;50.396;8.546;2023-03-22T12:50:30;1.87;;;1.30;;
18188;SDS011;9219;50.396;8.546;2023-03-22T12:53:01;2.47;;;1.03;;
18188;SDS011;9219;50.396;8.546;2023-03-22T12:55:33;4.63;;;1.80;;
18188;SDS011;9219;50.396;8.546;2023-03-22T13:02:35;1.93;;;1.17;;
18188;SDS011;9219;50.396;8.546;2023-03-22T13:05:03;1.53;;;0.93;;
18188;SDS011;9219;50.396;8.546;2023-03-22T13:07:48;4.00;;;1.33;;
18188;SDS011;9219;50.396;8.546;2023-03-22T13:13:33;3.40;;;1.10;;
18188;SDS011;9219;50.396;8.546;2023-03-22T13:16:16;6.03;;;1.60;;
18188;SDS011;9219;50.396;8.546;2023-03-22T13:19:02;1.67;;;1.10;;
18188;SDS011;9219;50.396;8.546;2023-03-22T13:21:45;4.00;;;1.70;;
18188;SDS011;9219;50.396;8.546;2023-03-22T13:24:18;1.30;;;1.10;;
18188;SDS011;9219;50.396;8.546;2023-03-22T13:26:49;1.10;;;1.00;;
18188;SDS011;9219;50.396;8.546;2023-03-22T13:29:22;5.83;;;1.27;;
18188;SDS011;9219;50.396;8.546;2023-03-22T13:31:54;1.63;;;1.27;;
18188;SDS011;9219;50.396;8.546;2023-03-22T13:34:30;1.43;;;1.30;;
18188;SDS011;9219;50.396;8.546;2023-03-22T13:37:08;2.13;;;1.13;;
18188;SDS011;9219;50.396;8.546;2023-03-22T13:43:44;0.80;;;0.70;;
18188;SDS011;9219;50.396;8.546;2023-03-22T13:46:26;1.77;;;0.70;;
18188;SDS011;9219;50.396;8.546;2023-03-22T13:52:24;1.40;;;0.90;;
18188;SDS011;9219;50.396;8.546;2023-03-22T13:55:02;0.73;;;0.67;;
18188;SDS011;9219;50.396;8.546;2023-03-22T13:57:44;1.43;;;0.93;;
18188;SDS011;9219;50.396;8.546;2023-03-22T14:06:09;2.80;;;0.93;;
18188;SDS011;9219;50.396;8.546;2023-03-22T14:08:41;1.70;;;0.93;;
18188;SDS011;9219;50.396;8.546;2023-03-22T14:11:17;1.00;;;0.70;;
18188;SDS011;9219;50.396;8.546;2023-03-22T14:13:50;0.73;;;0.63;;
18188;SDS011;9219;50.396;8.546;2023-03-22T14:16:26;1.77;;;0.90;;
18188;SDS011;9219;50.396;8.546;2023-03-22T14:19:01;1.33;;;0.60;;
18188;SDS011;9219;50.396;8.546;2023-03-22T14:21:33;1.07;;;0.70;;
18188;SDS011;9219;50.396;8.546;2023-03-22T14:28:21;4.60;;;1.10;;
18188;SDS011;9219;50.396;8.546;2023-03-22T14:31:05;1.40;;;0.80;;
18188;SDS011;9219;50.396;8.546;2023-03-22T14:33:39;2.20;;;1.10;;
18188;SDS011;9219;50.396;8.546;2023-03-22T14:36:10;2.57;;;0.70;;
18188;SDS011;9219;50.396;8.546;2023-03-22T14:38:41;3.37;;;1.00;;
18188;SDS011;9219;50.396;8.546;2023-03-22T14:41:12;1.73;;;1.10;;
18188;SDS011;9219;50.396;8.546;2023-03-22T14:43:42;5.70;;;1.33;;
18188;SDS011;9219;50.396;8.546;2023-03-22T14:50:32;1.93;;;1.10;;
18188;SDS011;9219;50.396;8.546;2023-03-22T14:53:09;1.47;;;1.30;;
18188;SDS011;9219;50.396;8.546;2023-03-22T14:55:36;3.77;;;1.10;;
18188;SDS011;9219;50.396;8.546;2023-03-22T14:58:05;2.57;;;1.20;;
18188;SDS011;9219;50.396;8.546;2023-03-22T15:00:37;1.37;;;1.27;;
18188;SDS011;9219;50.396;8.546;2023-03-22T15:03:06;1.67;;;1.20;;
18188;SDS011;9219;50.396;8.546;2023-03-22T15:05:41;2.73;;;1.37;;
18188;SDS011;9219;50.396;8.546;2023-03-22T15:13:10;1.20;;;1.10;;
18188;SDS011;9219;50.396;8.546;2023-03-22T15:15:39;2.23;;;1.33;;
18188;SDS011;9219;50.396;8.546;2023-03-22T15:18:07;2.03;;;1.10;;
18188;SDS011;9219;50.396;8.546;2023-03-22T15:20:41;2.37;;;1.50;;
18188;SDS011;9219;50.396;8.546;2023-03-22T15:23:13;1.90;;;1.40;;
18188;SDS011;9219;50.396;8.546;2023-03-22T15:25:43;2.60;;;1.40;;
18188;SDS011;9219;50.396;8.546;2023-03-22T15:28:17;2.10;;;1.17;;
18188;SDS011;9219;50.396;8.546;2023-03-22T15:35:54;2.30;;;1.40;;
18188;SDS011;9219;50.396;8.546;2023-03-22T15:38:26;1.03;;;0.93;;
18188;SDS011;9219;50.396;8.546;2023-03-22T15:41:02;0.93;;;0.93;;
18188;SDS011;9219;50.396;8.546;2023-03-22T15:43:31;1.67;;;1.07;;
18188;SDS011;9219;50.396;8.546;2023-03-22T15:46:10;2.20;;;0.87;;
18188;SDS011;9219;50.396;8.546;2023-03-22T15:48:41;2.57;;;1.20;;
18188;SDS011;9219;50.396;8.546;2023-03-22T15:51:13;1.43;;;1.07;;
18188;SDS011;9219;50.396;8.546;2023-03-22T15:58:25;1.53;;;1.07;;
18188;SDS011;9219;50.396;8.546;2023-03-22T16:01:06;2.10;;;0.90;;
18188;SDS011;9219;50.396;8.546;2023-03-22T16:03:37;2.67;;;1.07;;
18188;SDS011;9219;50.396;8.546;2023-03-22T16:06:08;2.90;;;1.00;;
18188;SDS011;9219;50.396;8.546;2023-03-22T16:08:39;1.17;;;0.90;;
18188;SDS011;9219;50.396;8.546;2023-03-22T16:11:08;2.20;;;1.33;;
18188;SDS011;9219;50.396;8.546;2023-03-22T16:17:18;1.77;;;0.80;;
18188;SDS011;9219;50.396;8.546;2023-03-22T16:19:46;1.30;;;0.90;;
18188;SDS011;9219;50.396;8.546;2023-03-22T16:22:18;0.80;;;0.70;;
18188;SDS011;9219;50.396;8.546;2023-03-22T16:24:47;1.80;;;1.00;;
18188;SDS011;9219;50.396;8.546;2023-03-22T16:27:17;1.50;;;0.87;;
18188;SDS011;9219;50.396;8.546;2023-03-22T16:29:45;2.53;;;0.80;;
18188;SDS011;9219;50.396;8.546;2023-03-22T16:32:14;3.33;;;0.90;;
18188;SDS011;9219;50.396;8.546;2023-03-22T16:39:50;1.23;;;0.90;;
18188;SDS011;9219;50.396;8.546;2023-03-22T16:42:21;0.80;;;0.60;;
18188;SDS011;9219;50.396;8.546;2023-03-22T16:44:50;0.80;;;0.60;;
18188;SDS011;9219;50.396;8.546;2023-03-22T16:47:19;1.63;;;1.00;;
18188;SDS011;9219;50.396;8.546;2023-03-22T16:49:49;1.13;;;0.70;;
18188;SDS011;9219;50.396;8.546;2023-03-22T16:52:18;2.57;;;0.90;;
18188;SDS011;9219;50.396;8.546;2023-03-22T16:54:51;1.80;;;0.80;;
18188;SDS011;9219;50.396;8.546;2023-03-22T17:01:48;1.47;;;0.87;;
18188;SDS011;9219;50.396;8.546;2023-03-22T17:04:16;0.97;;;0.80;;
18188;SDS011;9219;50.396;8.546;2023-03-22T17:06:44;2.93;;;0.87;;
18188;SDS011;9219;50.396;8.546;2023-03-22T17:09:13;5.80;;;0.87;;
18188;SDS011;9219;50.396;8.546;2023-03-22T17:11:40;0.70;;;0.70;;
18188;SDS011;9219;50.396;8.546;2023-03-22T17:14:10;1.37;;;1.00;;
18188;SDS011;9219;50.396;8.546;2023-03-22T17:16:39;0.60;;;0.60;;
18188;SDS011;9219;50.396;8.546;2023-03-22T17:23:46;1.47;;;0.83;;
18188;SDS011;9219;50.396;8.546;2023-03-22T17:26:16;3.40;;;0.60;;
18188;SDS011;9219;50.396;8.546;2023-03-22T17:28:43;2.60;;;0.90;;
18188;SDS011;9219;50.396;8.546;2023-03-22T17:31:13;1.17;;;1.00;;
18188;SDS011;9219;50.396;8.546;2023-03-22T17:33:42;2.80;;;1.00;;
18188;SDS011;9219;50.396;8.546;2023-03-22T17:36:10;1.03;;;0.80;;
18188;SDS011;9219;50.396;8.546;2023-03-22T17:38:38;1.23;;;0.77;;
18188;SDS011;9219;50.396;8.546;2023-03-22T17:46:10;1.40;;;0.67;;
18188;SDS011;9219;50.396;8.546;2023-03-22T17:48:37;2.53;;;0.83;;
18188;SDS011;9219;50.396;8.546;2023-03-22T17:51:05;0.80;;;0.80;;
18188;SDS011;9219;50.396;8.546;2023-03-22T17:53:32;1.80;;;1.30;;
18188;SDS011;9219;50.396;8.546;2023-03-22T17:56:01;1.43;;;0.80;;
18188;SDS011;9219;50.396;8.546;2023-03-22T17:58:31;1.33;;;0.60;;
18188;SDS011;9219;50.396;8.546;2023-03-22T18:00:59;4.47;;;1.27;;
18188;SDS011;9219;50.396;8.546;2023-03-22T18:08:33;1.93;;;0.73;;
18188;SDS011;9219;50.396;8.546;2023-03-22T18:11:05;1.90;;;0.90;;
18188;SDS011;9219;50.396;8.546;2023-03-22T18:13:32;3.47;;;1.00;;
18188;SDS011;9219;50.396;8.546;2023-03-22T18:16:05;2.07;;;0.63;;
18188;SDS011;9219;50.396;8.546;2023-03-22T18:18:36;1.70;;;0.70;;
18188;SDS011;9219;50.396;8.546;2023-03-22T18:21:10;3.87;;;0.70;;
18188;SDS011;9219;50.396;8.546;2023-03-22T18:23:41;3.70;;;0.70;;
18188;SDS011;9219;50.396;8.546;2023-03-22T18:31:18;2.20;;;1.00;;
18188;SDS011;9219;50.396;8.546;2023-03-22T18:33:47;0.77;;;0.70;;
18188;SDS011;9219;50.396;8.546;2023-03-22T18:36:14;1.03;;;0.83;;
18188;SDS011;9219;50.396;8.546;2023-03-22T18:38:42;1.47;;;0.97;;
18188;SDS011;9219;50.396;8.546;2023-03-22T18:41:12;2.87;;;0.90;;
18188;SDS011;9219;50.396;8.546;2023-03-22T18:43:40;1.83;;;0.57;;
18188;SDS011;9219;50.396;8.546;2023-03-22T18:46:09;1.47;;;0.90;;
18188;SDS011;9219;50.396;8.546;2023-03-22T18:53:43;1.00;;;0.70;;
18188;SDS011;9219;50.396;8.546;2023-03-22T18:56:12;1.33;;;0.80;;
18188;SDS011;9219;50.396;8.546;2023-03-22T18:58:41;1.00;;;0.90;;
18188;SDS011;9219;50.396;8.546;2023-03-22T19:01:13;2.60;;;0.80;;
18188;SDS011;9219;50.396;8.546;2023-03-22T19:03:41;0.60;;;0.60;;
18188;SDS011;9219;50.396;8.546;2023-03-22T19:06:11;2.40;;;0.63;;
18188;SDS011;9219;50.396;8.546;2023-03-22T19:08:44;1.60;;;0.97;;
18188;SDS011;9219;50.396;8.546;2023-03-22T19:16:22;0.70;;;0.70;;
18188;SDS011;9219;50.396;8.546;2023-03-22T19:18:58;3.80;;;1.00;;
18188;SDS011;9219;50.396;8.546;2023-03-22T19:21:27;2.07;;;0.93;;
18188;SDS011;9219;50.396;8.546;2023-03-22T19:23:56;1.10;;;0.93;;
18188;SDS011;9219;50.396;8.546;2023-03-22T19:26:30;1.17;;;0.83;;
18188;SDS011;9219;50.396;8.546;2023-03-22T19:28:58;1.80;;;0.93;;
18188;SDS011;9219;50.396;8.546;2023-03-22T19:31:28;0.87;;;0.77;;
18188;SDS011;9219;50.396;8.546;2023-03-22T19:38:59;2.00;;;1.07;;
18188;SDS011;9219;50.396;8.546;2023-03-22T19:41:30;1.73;;;0.90;;
18188;SDS011;9219;50.396;8.546;2023-03-22T19:44:00;1.50;;;1.10;;
18188;SDS011;9219;50.396;8.546;2023-03-22T19:46:35;1.17;;;0.80;;
18188;SDS011;9219;50.396;8.546;2023-03-22T19:49:04;1.00;;;0.80;;